Time;durP1;ratioP1;P1;durP2;ratioP2;P2;SDS_P1;SDS_P2;PMS_P1;PMS_P2;Temp;Humidity;BMP_temperature;BMP_pressure;BME280_temperature;BME280_humidity;BME280_pressure;Samples;Min_cycle;Max_cycle;Signal;HPM_P1;HPM_P2
2022/08/31 00:05:59;;;;;;;2.70;1.30;;;;;;;17.80;63.27;101960.78;5031995;28;20046;-70
2022/08/31 00:08:29;;;;;;;1.75;1.10;;;;;;;17.79;63.19;101969.72;5026718;28;20108;-72
2022/08/31 00:10:57;;;;;;;2.22;1.20;;;;;;;17.79;63.09;101972.41;5029132;28;20045;-73
2022/08/31 00:13:27;;;;;;;4.07;1.10;;;;;;;17.78;63.32;101970.66;5038449;28;20116;-73
2022/08/31 00:15:55;;;;;;;1.40;1.13;;;;;;;17.76;63.47;101983.19;5038701;28;20054;-69
2022/08/31 00:18:23;;;;;;;2.75;1.40;;;;;;;17.73;63.47;101967.34;5038554;28;20501;-69
2022/08/31 00:20:51;;;;;;;1.52;1.30;;;;;;;17.72;63.61;101970.94;5041369;28;20161;-68
2022/08/31 00:23:19;;;;;;;1.73;1.48;;;;;;;17.70;63.60;101971.00;5033455;28;20069;-70
2022/08/31 00:25:48;;;;;;;2.28;1.20;;;;;;;17.66;63.82;101972.06;5031180;28;21031;-70
2022/08/31 00:28:17;;;;;;;1.67;1.30;;;;;;;17.63;63.66;101982.84;5034123;28;20106;-70
2022/08/31 00:30:47;;;;;;;4.10;1.40;;;;;;;17.60;64.01;101965.19;5027833;28;20832;-70
2022/08/31 00:33:15;;;;;;;2.00;1.23;;;;;;;17.57;63.98;101972.44;5032182;28;20042;-70
2022/08/31 00:35:45;;;;;;;3.15;1.20;;;;;;;17.54;64.11;101978.78;5047638;28;20042;-71
2022/08/31 00:38:13;;;;;;;2.28;1.30;;;;;;;17.53;64.03;101982.38;5030149;28;20143;-71
2022/08/31 00:40:46;;;;;;;3.35;1.30;;;;;;;17.49;64.17;101975.44;5025503;28;20081;-70
2022/08/31 00:43:49;;;;;;;2.42;1.27;;;;;;;17.46;64.35;101983.53;5025391;28;20035;-70
2022/08/31 00:46:32;;;;;;;1.90;1.30;;;;;;;17.41;64.53;101969.56;5034354;28;20776;-70
2022/08/31 00:49:33;;;;;;;3.00;1.30;;;;;;;17.39;64.75;101967.81;5033965;28;20096;-71
2022/08/31 00:52:43;;;;;;;2.22;1.20;;;;;;;17.35;64.69;101974.19;5027894;28;20050;-72
2022/08/31 00:55:23;;;;;;;2.72;1.48;;;;;;;17.31;64.88;101975.25;4970870;28;20051;-70
2022/08/31 00:57:55;;;;;;;2.22;1.23;;;;;;;17.30;64.99;101978.84;5027954;28;20088;-70
2022/08/31 01:00:26;;;;;;;2.45;1.50;;;;;;;17.27;65.09;101976.31;5031000;28;20119;-73
2022/08/31 01:02:58;;;;;;;3.83;1.30;;;;;;;17.26;65.02;101976.38;5034656;28;20108;-73
2022/08/31 01:05:26;;;;;;;3.38;1.50;;;;;;;17.23;65.22;101974.72;5032603;28;20132;-73
2022/08/31 01:07:55;;;;;;;2.67;1.30;;;;;;;17.20;65.32;101978.34;5032625;28;20061;-73
2022/08/31 01:10:29;;;;;;;2.45;1.50;;;;;;;17.17;65.67;101974.94;5031670;28;20104;-73
2022/08/31 01:12:58;;;;;;;1.75;1.27;;;;;;;17.15;65.38;101969.69;5032471;28;20390;-72
2022/08/31 01:15:29;;;;;;;2.90;1.65;;;;;;;17.12;65.53;101968.94;5031776;28;20105;-72
2022/08/31 01:18:01;;;;;;;1.92;1.40;;;;;;;17.08;65.56;101971.72;5026049;28;20065;-72
2022/08/31 01:20:45;;;;;;;1.73;1.30;;;;;;;17.09;65.66;101975.28;5031049;28;20100;-72
2022/08/31 01:23:23;;;;;;;2.85;1.30;;;;;;;17.05;65.53;101978.97;5031446;28;20742;-72
2022/08/31 01:25:55;;;;;;;2.40;1.25;;;;;;;17.04;65.85;101977.22;5031574;28;20042;-72
2022/08/31 01:28:24;;;;;;;2.97;1.45;;;;;;;17.00;66.08;101970.28;5032678;28;20049;-72
2022/08/31 01:31:09;;;;;;;3.83;1.50;;;;;;;16.97;65.90;101967.75;5029182;28;20535;-72
2022/08/31 01:33:38;;;;;;;5.35;2.00;;;;;;;16.95;66.11;101974.94;5053171;28;20041;-71
2022/08/31 01:36:09;;;;;;;3.33;1.42;;;;;;;16.94;66.25;101973.19;5040669;28;20574;-71
2022/08/31 01:38:43;;;;;;;1.98;1.40;;;;;;;16.91;66.27;101969.69;5026296;28;21105;-71
2022/08/31 01:41:10;;;;;;;1.60;1.27;;;;;;;16.88;66.52;101969.81;5045356;28;20755;-71
2022/08/31 01:43:40;;;;;;;2.35;1.40;;;;;;;16.84;66.44;101972.66;5029390;28;20741;-71
2022/08/31 01:46:12;;;;;;;2.80;1.40;;;;;;;16.82;66.57;101975.38;5031335;28;20046;-71
2022/08/31 01:48:47;;;;;;;2.65;1.40;;;;;;;16.80;66.69;101974.56;5033937;28;20037;-71
2022/08/31 01:51:17;;;;;;;2.53;1.35;;;;;;;16.76;66.70;101967.63;5035531;28;20521;-71
2022/08/31 01:53:49;;;;;;;2.30;1.40;;;;;;;16.74;66.75;101967.66;5023806;28;20034;-70
2022/08/31 01:56:29;;;;;;;1.67;1.20;;;;;;;16.73;66.90;101968.63;5030770;28;20057;-71
2022/08/31 01:58:59;;;;;;;2.10;1.20;;;;;;;16.68;66.99;101967.06;5029505;28;20851;-71
2022/08/31 02:01:55;;;;;;;1.95;1.50;;;;;;;16.65;66.86;101973.34;4992689;28;20147;-72
2022/08/31 02:04:27;;;;;;;3.47;1.35;;;;;;;16.64;67.01;101978.75;5028753;28;20045;-72
2022/08/31 02:07:00;;;;;;;2.60;1.30;;;;;;;16.60;67.23;101976.19;5036317;28;20034;-72
2022/08/31 02:09:28;;;;;;;3.42;1.35;;;;;;;16.55;67.25;101975.50;5027317;28;20038;-72
2022/08/31 02:11:57;;;;;;;2.17;1.40;;;;;;;16.55;67.14;101972.84;5063153;28;20044;-72
2022/08/31 02:14:25;;;;;;;1.52;1.33;;;;;;;16.51;67.16;101975.69;5055707;28;20046;-71
2022/08/31 02:16:54;;;;;;;7.03;1.67;;;;;;;16.48;67.18;101971.34;5041505;28;20045;-72
2022/08/31 02:19:21;;;;;;;3.05;1.40;;;;;;;16.44;67.05;101975.03;5060124;28;20541;-72
2022/08/31 02:21:48;;;;;;;2.33;1.40;;;;;;;16.41;67.15;101976.03;5029951;28;20457;-69
2022/08/31 02:24:16;;;;;;;1.80;1.50;;;;;;;16.39;67.19;101976.97;5030020;28;20073;-70
2022/08/31 02:26:43;;;;;;;2.53;1.55;;;;;;;16.39;67.24;101982.31;5049673;28;20042;-70
2022/08/31 02:29:10;;;;;;;3.00;1.60;;;;;;;16.39;66.96;101987.63;5031870;28;20074;-70
2022/08/31 02:31:38;;;;;;;3.80;1.50;;;;;;;16.35;67.20;101983.34;5028601;28;20791;-70
2022/08/31 02:34:05;;;;;;;1.45;1.30;;;;;;;16.32;67.07;101983.47;5028939;28;20157;-70
2022/08/31 02:36:33;;;;;;;1.75;1.20;;;;;;;16.29;67.30;101989.78;5035224;28;20453;-70
2022/08/31 02:39:04;;;;;;;2.85;1.30;;;;;;;16.24;67.35;101994.38;5029734;28;20057;-70
2022/08/31 02:41:33;;;;;;;3.10;1.58;;;;;;;16.21;67.29;101982.06;5027880;28;20052;-70
2022/08/31 02:44:00;;;;;;;1.50;1.20;;;;;;;16.18;67.32;101989.28;5024281;28;20089;-71
2022/08/31 02:46:27;;;;;;;2.60;1.20;;;;;;;16.13;67.41;101992.09;5032206;28;20038;-71
2022/08/31 02:49:15;;;;;;;2.00;1.20;;;;;;;16.09;67.34;101987.81;5032804;28;20056;-71
2022/08/31 02:51:43;;;;;;;2.00;1.60;;;;;;;16.08;67.25;101991.38;5028500;28;20170;-71
2022/08/31 02:54:11;;;;;;;2.13;1.35;;;;;;;16.04;67.08;101987.13;5035168;28;20045;-71
2022/08/31 02:56:40;;;;;;;2.30;1.33;;;;;;;16.04;66.94;101992.44;5056512;28;20128;-71
2022/08/31 02:59:08;;;;;;;2.30;1.30;;;;;;;16.02;66.98;101986.28;5049520;28;20093;-71
2022/08/31 03:01:36;;;;;;;1.75;1.30;;;;;;;15.97;67.06;101992.63;5032801;28;20037;-71
2022/08/31 03:04:04;;;;;;;2.50;1.30;;;;;;;15.94;66.90;101995.41;5024498;28;20419;-71
2022/08/31 03:06:33;;;;;;;2.10;1.10;;;;;;;15.91;66.96;101992.84;5031117;28;20042;-71
2022/08/31 03:09:01;;;;;;;1.23;1.08;;;;;;;15.89;66.71;101996.50;5029537;28;20042;-71
2022/08/31 03:11:28;;;;;;;2.00;1.20;;;;;;;15.85;66.66;101979.78;5061105;28;20056;-71
2022/08/31 03:13:55;;;;;;;3.90;1.60;;;;;;;15.81;66.75;101991.41;5046290;28;20038;-71
2022/08/31 03:16:25;;;;;;;1.60;1.20;;;;;;;15.78;66.61;101989.72;5034727;28;20545;-71
2022/08/31 03:18:52;;;;;;;2.50;0.95;;;;;;;15.74;66.61;101985.41;5030454;28;20045;-71
2022/08/31 03:21:20;;;;;;;3.75;1.30;;;;;;;15.72;66.55;101984.59;5027521;28;20050;-71
2022/08/31 03:23:47;;;;;;;2.70;1.20;;;;;;;15.70;66.58;101989.13;5013427;28;20137;-72
2022/08/31 03:26:14;;;;;;;2.08;1.17;;;;;;;15.65;66.31;101977.75;5027596;28;20052;-72
2022/08/31 03:28:41;;;;;;;1.98;0.98;;;;;;;15.62;66.22;101986.72;5060707;28;20049;-70
2022/08/31 03:31:30;;;;;;;2.45;1.23;;;;;;;15.59;66.23;101983.28;5030914;28;20045;-70
2022/08/31 03:33:58;;;;;;;2.13;1.15;;;;;;;15.56;66.03;101981.63;5029269;28;20053;-70
2022/08/31 03:36:25;;;;;;;1.98;1.10;;;;;;;15.55;65.67;101982.53;5031342;28;20042;-70
2022/08/31 03:38:52;;;;;;;2.35;1.13;;;;;;;15.52;65.78;101974.66;5020781;28;20140;-70
2022/08/31 03:41:24;;;;;;;2.55;1.05;;;;;;;15.50;65.56;101979.13;5049339;28;20061;-70
2022/08/31 03:43:52;;;;;;;3.67;1.10;;;;;;;15.46;65.37;101974.84;5031694;28;20117;-70
2022/08/31 03:46:19;;;;;;;1.30;1.00;;;;;;;15.41;65.26;101972.34;5050402;28;20034;-70
2022/08/31 03:48:46;;;;;;;2.85;1.20;;;;;;;15.40;65.15;101973.28;5028390;28;20041;-70
2022/08/31 03:51:15;;;;;;;2.08;1.30;;;;;;;15.37;65.06;101979.53;5059545;28;20038;-70
2022/08/31 03:53:43;;;;;;;2.13;1.10;;;;;;;15.37;64.80;101976.03;5027319;28;20129;-70
2022/08/31 03:56:16;;;;;;;3.35;0.98;;;;;;;15.36;64.78;101982.25;5047347;28;20058;-69
2022/08/31 03:58:47;;;;;;;1.15;1.00;;;;;;;15.33;64.57;101983.22;5032592;28;20089;-69
2022/08/31 04:01:36;;;;;;;1.77;0.90;;;;;;;15.29;64.55;101981.56;5033127;28;20042;-69
2022/08/31 04:04:22;;;;;;;2.05;1.00;;;;;;;15.29;64.28;101981.56;5025746;28;20042;-70
2022/08/31 04:07:09;;;;;;;1.10;0.90;;;;;;;15.27;64.32;101979.88;5030555;28;20050;-68
2022/08/31 04:10:03;;;;;;;2.83;0.88;;;;;;;15.22;64.29;101982.69;5024262;28;20225;-69
2022/08/31 04:12:49;;;;;;;2.35;1.08;;;;;;;15.18;64.18;101989.00;5032399;28;20052;-70
2022/08/31 04:15:38;;;;;;;2.53;1.00;;;;;;;15.15;64.25;101986.47;5064289;28;20058;-69
2022/08/31 04:18:36;;;;;;;1.48;1.00;;;;;;;15.14;64.16;101992.69;5012454;28;20487;-69
2022/08/31 04:21:09;;;;;;;2.13;1.02;;;;;;;15.11;63.93;101984.81;5045033;28;20062;-69
2022/08/31 04:23:39;;;;;;;1.02;0.77;;;;;;;15.07;63.80;101984.91;5043208;28;20046;-71
2022/08/31 04:26:16;;;;;;;0.75;0.70;;;;;;;15.06;63.83;101985.81;5028440;28;20052;-71
2022/08/31 04:28:43;;;;;;;3.80;1.00;;;;;;;15.03;63.72;101991.25;5056632;28;20155;-70
2022/08/31 04:31:11;;;;;;;1.40;0.93;;;;;;;15.00;63.94;101998.44;5043230;28;20084;-72
2022/08/31 04:33:42;;;;;;;3.00;1.00;;;;;;;14.97;63.75;102001.19;5033723;28;20040;-72
2022/08/31 04:36:15;;;;;;;1.45;0.90;;;;;;;14.96;63.66;102010.06;5031602;28;20061;-73
2022/08/31 04:38:45;;;;;;;2.13;0.93;;;;;;;14.90;64.00;102000.50;5046801;28;20370;-73
2022/08/31 04:41:18;;;;;;;1.63;1.00;;;;;;;14.88;63.87;102003.19;5029869;28;20129;-73
2022/08/31 04:43:51;;;;;;;1.70;0.80;;;;;;;14.86;63.68;101997.06;5024215;28;20048;-73
2022/08/31 04:46:20;;;;;;;2.45;1.17;;;;;;;14.82;63.95;101999.84;5044868;28;20092;-73
2022/08/31 04:48:48;;;;;;;2.78;0.90;;;;;;;14.82;64.05;102002.50;5030474;28;20069;-73
2022/08/31 04:51:30;;;;;;;1.83;0.80;;;;;;;14.81;63.76;102009.59;5030635;28;20038;-73
2022/08/31 04:53:57;;;;;;;3.33;0.90;;;;;;;14.80;63.81;102007.88;5030366;28;20045;-73
2022/08/31 04:56:30;;;;;;;2.83;1.15;;;;;;;14.75;64.06;102002.66;5034550;28;20037;-73
2022/08/31 04:59:05;;;;;;;2.17;0.90;;;;;;;14.73;63.78;102003.63;5031925;28;20053;-72
2022/08/31 05:01:41;;;;;;;4.78;0.98;;;;;;;14.76;63.51;102008.88;5023482;28;20623;-73
2022/08/31 05:04:32;;;;;;;1.30;0.85;;;;;;;14.71;63.32;102011.66;5029932;28;20044;-72
2022/08/31 05:07:00;;;;;;;1.27;0.88;;;;;;;14.68;63.36;102013.53;5058656;28;20056;-73
2022/08/31 05:09:31;;;;;;;1.83;0.80;;;;;;;14.65;63.47;102013.56;5024720;28;20048;-73
2022/08/31 05:11:59;;;;;;;2.38;0.90;;;;;;;14.64;63.47;102012.72;5028073;28;20053;-73
2022/08/31 05:14:27;;;;;;;1.65;0.95;;;;;;;14.66;63.34;102017.97;5046202;28;20124;-72
2022/08/31 05:17:13;;;;;;;1.70;0.90;;;;;;;14.70;62.99;102015.22;5042965;28;20061;-72
2022/08/31 05:19:42;;;;;;;2.40;0.70;;;;;;;14.73;62.60;102011.59;5022275;28;20050;-72
2022/08/31 05:22:13;;;;;;;5.85;1.15;;;;;;;14.72;62.74;102018.72;5044565;28;20042;-72
2022/08/31 05:24:44;;;;;;;2.85;0.70;;;;;;;14.73;62.56;102017.78;5046943;28;20050;-72
2022/08/31 05:27:12;;;;;;;1.92;0.73;;;;;;;14.75;62.38;102015.09;5053752;28;20056;-72
2022/08/31 05:29:40;;;;;;;2.25;0.80;;;;;;;14.77;62.03;102018.56;5044738;28;20154;-73
2022/08/31 05:32:31;;;;;;;1.17;0.80;;;;;;;14.79;61.92;102018.50;5030018;28;20052;-73
2022/08/31 05:35:01;;;;;;;1.38;0.77;;;;;;;14.81;61.57;102014.91;5027637;28;20108;-72
2022/08/31 05:37:28;;;;;;;4.15;1.17;;;;;;;14.84;61.59;102027.22;5045712;28;20041;-72
2022/08/31 05:39:57;;;;;;;1.70;0.77;;;;;;;14.86;61.48;102023.59;5045167;28;20141;-72
2022/08/31 05:42:24;;;;;;;1.42;0.75;;;;;;;14.91;61.10;102031.44;5028312;28;20081;-73
2022/08/31 05:44:51;;;;;;;1.23;0.80;;;;;;;14.93;60.87;102019.00;5031202;28;20046;-73
2022/08/31 05:47:19;;;;;;;2.78;0.90;;;;;;;14.95;60.69;102025.13;5021926;28;20042;-73
2022/08/31 05:49:46;;;;;;;2.85;0.80;;;;;;;14.99;60.64;102018.78;5028586;28;20045;-72
2022/08/31 05:52:17;;;;;;;1.65;0.65;;;;;;;15.02;60.40;102028.44;5027015;28;20096;-73
2022/08/31 05:54:51;;;;;;;1.42;0.70;;;;;;;15.04;60.28;102026.63;5053994;28;20117;-73
2022/08/31 05:57:18;;;;;;;1.13;0.70;;;;;;;15.05;60.02;102023.94;5050246;28;20038;-72
2022/08/31 05:59:52;;;;;;;1.30;0.70;;;;;;;15.09;59.98;102032.69;5061912;28;20042;-73
2022/08/31 06:02:20;;;;;;;1.65;1.00;;;;;;;15.18;59.78;102028.84;5043425;28;20877;-72
2022/08/31 06:04:47;;;;;;;4.95;0.77;;;;;;;15.28;59.51;102029.44;5029252;28;20037;-72
2022/08/31 06:07:18;;;;;;;3.97;0.90;;;;;;;15.41;58.83;102033.47;5060864;28;20120;-73
2022/08/31 06:09:52;;;;;;;5.18;0.90;;;;;;;15.49;58.67;102027.88;5041393;28;20037;-73
2022/08/31 06:12:24;;;;;;;4.00;0.88;;;;;;;15.58;58.27;102040.88;5039492;28;20046;-73
2022/08/31 06:14:52;;;;;;;2.25;0.70;;;;;;;15.64;58.19;102030.06;5039568;28;20065;-73
2022/08/31 06:17:20;;;;;;;1.98;0.73;;;;;;;15.78;57.32;102034.03;5063376;28;20057;-73
2022/08/31 06:19:48;;;;;;;2.60;0.70;;;;;;;15.86;57.08;102045.34;5056404;28;20480;-73
2022/08/31 06:22:16;;;;;;;0.75;0.60;;;;;;;15.94;56.54;102037.97;5036284;28;20473;-73
2022/08/31 06:24:43;;;;;;;2.78;0.75;;;;;;;15.99;56.48;102035.16;5039851;28;20831;-72
2022/08/31 06:27:10;;;;;;;1.10;0.65;;;;;;;16.05;56.42;102036.72;5056055;28;20033;-73
2022/08/31 06:29:40;;;;;;;1.52;0.60;;;;;;;16.15;55.95;102043.47;5038775;28;20042;-73
2022/08/31 06:32:09;;;;;;;1.13;0.70;;;;;;;16.18;55.84;102040.69;5041808;28;20058;-73
2022/08/31 06:34:46;;;;;;;1.42;0.70;;;;;;;16.32;55.45;102039.34;5047891;28;20128;-73
2022/08/31 06:37:32;;;;;;;1.27;0.70;;;;;;;16.39;55.15;102033.75;5031285;28;21704;-73
2022/08/31 06:40:15;;;;;;;2.00;0.57;;;;;;;16.49;54.95;102034.28;5035637;28;20069;-73
2022/08/31 06:42:42;;;;;;;0.70;0.45;;;;;;;16.56;54.66;102033.16;5043082;28;20053;-72
2022/08/31 06:45:46;;;;;;;2.05;0.60;;;;;;;16.60;54.55;102039.22;5051493;28;20038;-69
2022/08/31 06:48:34;;;;;;;1.25;0.68;;;;;;;16.59;54.81;102035.66;5025610;28;20054;-70
2022/08/31 06:51:03;;;;;;;1.70;0.80;;;;;;;16.65;54.60;102042.56;5033015;28;20050;-70
2022/08/31 06:53:30;;;;;;;2.78;1.00;;;;;;;16.61;54.66;102039.16;5028048;28;20049;-70
2022/08/31 06:56:21;;;;;;;1.08;0.70;;;;;;;16.55;54.96;102046.50;5031536;28;20678;-70
2022/08/31 06:59:12;;;;;;;3.08;0.80;;;;;;;16.56;54.92;102041.13;5032539;28;20045;-70
2022/08/31 07:02:00;;;;;;;1.35;0.60;;;;;;;16.53;54.95;102054.53;5031911;28;20048;-70
2022/08/31 07:04:35;;;;;;;1.40;0.73;;;;;;;16.52;55.35;102050.13;5032360;28;20045;-70
2022/08/31 07:07:05;;;;;;;2.55;0.73;;;;;;;16.58;55.08;102057.88;5035050;28;20049;-69
2022/08/31 07:09:35;;;;;;;1.65;0.70;;;;;;;16.64;55.26;102050.63;5047444;28;20076;-70
2022/08/31 07:12:04;;;;;;;3.17;1.10;;;;;;;16.74;55.09;102058.19;5058582;28;20065;-70
2022/08/31 07:14:32;;;;;;;2.42;0.75;;;;;;;16.80;55.06;102057.09;5046736;28;20118;-70
2022/08/31 07:17:03;;;;;;;1.60;0.93;;;;;;;16.86;55.15;102064.00;5058095;28;20080;-71
2022/08/31 07:19:31;;;;;;;1.35;0.85;;;;;;;16.95;54.79;102060.16;5046720;28;20046;-71
2022/08/31 07:22:06;;;;;;;3.28;1.00;;;;;;;16.99;54.64;102062.66;5054993;28;20045;-71
2022/08/31 07:24:35;;;;;;;4.85;1.20;;;;;;;17.08;54.74;102069.44;5062519;28;20041;-71
2022/08/31 07:27:15;;;;;;;3.65;0.98;;;;;;;17.17;54.53;102078.84;5030202;28;20061;-70
2022/08/31 07:29:48;;;;;;;3.72;0.88;;;;;;;17.22;54.10;102080.41;5045830;28;20038;-71
2022/08/31 07:32:17;;;;;;;1.33;1.00;;;;;;;17.15;54.31;102068.25;5035491;28;20048;-71
2022/08/31 07:34:44;;;;;;;2.25;0.85;;;;;;;17.21;54.45;102078.66;5046736;28;20071;-71
2022/08/31 07:43:00;;;;;;;4.47;0.90;;;;;;;17.62;53.63;102077.97;5054454;28;20033;-71
2022/08/31 07:45:31;;;;;;;2.65;1.00;;;;;;;17.67;53.64;102081.31;5054902;28;20050;-71
2022/08/31 07:48:03;;;;;;;1.73;1.00;;;;;;;17.75;53.39;102081.00;5041012;28;20195;-71
2022/08/31 07:50:55;;;;;;;3.60;0.98;;;;;;;17.84;53.37;102077.09;5055690;28;20044;-71
2022/08/31 07:53:54;;;;;;;1.67;0.90;;;;;;;17.89;53.34;102084.91;5008248;28;20156;-71
2022/08/31 07:56:30;;;;;;;2.50;1.08;;;;;;;17.97;53.50;102082.81;5022683;28;20042;-71
2022/08/31 07:59:09;;;;;;;3.05;1.17;;;;;;;18.11;53.31;102087.56;5040174;28;20042;-71
2022/08/31 08:01:40;;;;;;;2.83;0.85;;;;;;;18.19;53.16;102085.44;5037952;28;20042;-71
2022/08/31 08:04:12;;;;;;;1.30;0.90;;;;;;;18.21;53.07;102090.72;5039686;28;20572;-71
2022/08/31 08:06:59;;;;;;;2.13;1.17;;;;;;;18.26;53.28;102094.06;5038449;28;20045;-69
2022/08/31 08:09:54;;;;;;;5.88;1.13;;;;;;;18.40;52.80;102090.78;5034284;28;20049;-70
2022/08/31 08:12:49;;;;;;;2.70;1.13;;;;;;;18.49;52.83;102093.03;5030229;28;20056;-69
2022/08/31 08:15:43;;;;;;;2.88;0.90;;;;;;;18.68;52.34;102094.91;5024179;28;20509;-70
2022/08/31 08:18:25;;;;;;;4.70;1.20;;;;;;;18.80;52.22;102090.81;5038739;28;20041;-70
2022/08/31 08:20:56;;;;;;;3.90;1.20;;;;;;;18.91;51.51;102092.06;5053609;28;20129;-70
2022/08/31 08:23:24;;;;;;;2.58;1.17;;;;;;;18.96;52.00;102093.69;5055518;28;20151;-70
2022/08/31 08:26:10;;;;;;;3.45;1.20;;;;;;;19.12;51.61;102102.72;5029506;28;20042;-70
2022/08/31 08:29:07;;;;;;;2.92;1.00;;;;;;;19.26;51.60;102099.41;5032547;28;20053;-69
2022/08/31 08:31:41;;;;;;;;;;;;;;;19.45;50.86;102091.38;5053092;28;20497;-70
2022/08/31 08:34:09;;;;;;;4.82;1.42;;;;;;;19.62;50.09;102103.94;5061415;28;19936;-70
2022/08/31 08:36:39;;;;;;;2.13;1.27;;;;;;;19.61;50.35;102093.31;5036870;28;20045;-70
2022/08/31 08:39:09;;;;;;;5.88;1.30;;;;;;;19.53;50.78;102105.25;5061093;28;20491;-70
2022/08/31 08:41:46;;;;;;;2.50;1.20;;;;;;;19.55;50.71;102103.38;5037125;28;20038;-70
2022/08/31 08:44:17;;;;;;;4.35;1.83;;;;;;;19.59;50.74;102106.75;5032156;28;20121;-70
2022/08/31 08:46:59;;;;;;;2.88;1.20;;;;;;;19.59;50.98;102097.84;5038170;28;20050;-70
2022/08/31 08:49:50;;;;;;;3.67;1.25;;;;;;;19.60;51.24;102097.81;5059942;28;20038;-70
2022/08/31 08:52:34;;;;;;;2.90;1.45;;;;;;;19.74;50.77;102099.78;5035553;28;20078;-71
2022/08/31 08:55:15;;;;;;;2.35;1.50;;;;;;;19.74;51.09;102098.94;5038912;28;20117;-70
2022/08/31 08:57:46;;;;;;;3.13;1.27;;;;;;;19.91;50.58;102092.75;5030801;28;20124;-70
2022/08/31 09:00:23;;;;;;;3.03;1.60;;;;;;;19.93;51.02;102090.88;5048273;28;20575;-70
2022/08/31 09:03:21;;;;;;;2.90;1.40;;;;;;;19.87;51.14;102092.06;5032068;28;20041;-70
2022/08/31 09:06:22;;;;;;;;;;;;;;;19.75;51.70;102088.16;5033119;28;20069;-70
2022/08/31 09:09:31;;;;;;;3.03;1.35;;;;;;;19.74;52.00;102089.09;5031635;28;19976;-70
2022/08/31 09:12:29;;;;;;;3.20;1.40;;;;;;;19.86;51.77;102087.63;5038715;28;20042;-71
2022/08/31 09:15:35;;;;;;;2.95;1.50;;;;;;;19.89;51.68;102082.16;5030761;28;20037;-70
2022/08/31 09:18:40;;;;;;;4.30;1.50;;;;;;;20.11;51.24;102086.41;5031220;28;20045;-70
2022/08/31 09:21:24;;;;;;;4.13;1.50;;;;;;;20.03;51.47;102086.78;5032912;28;20050;-71
2022/08/31 09:24:06;;;;;;;4.53;1.50;;;;;;;20.04;51.82;102087.69;5032230;28;20104;-70
2022/08/31 09:27:16;;;;;;;2.97;1.63;;;;;;;20.31;51.30;102077.34;5030285;28;20184;-70
2022/08/31 09:29:59;;;;;;;5.00;1.80;;;;;;;20.50;51.07;102079.94;5029362;28;20050;-70
2022/08/31 09:32:34;;;;;;;3.97;1.52;;;;;;;20.53;51.07;102081.56;5029314;28;20045;-71
2022/08/31 09:35:22;;;;;;;2.85;1.58;;;;;;;20.39;51.34;102069.78;5030550;28;20038;-70
2022/08/31 09:38:08;;;;;;;2.17;1.67;;;;;;;20.38;51.36;102075.22;5036999;28;20068;-70
2022/08/31 09:40:46;;;;;;;3.88;1.75;;;;;;;20.58;51.28;102072.34;5040772;28;20065;-70
2022/08/31 09:43:26;;;;;;;3.03;1.50;;;;;;;20.82;50.87;102074.69;5030412;28;20527;-70
2022/08/31 09:46:10;;;;;;;3.92;1.50;;;;;;;20.96;50.56;102060.53;5032388;28;20046;-70
2022/08/31 09:48:50;;;;;;;4.30;1.67;;;;;;;21.33;50.14;102065.66;5032525;28;20052;-70
2022/08/31 09:51:23;;;;;;;3.78;1.58;;;;;;;21.73;49.47;102071.44;5032502;28;20046;-71
2022/08/31 09:56:54;;;;;;;4.82;1.40;;;;;;;22.24;47.96;102057.69;5032052;28;20046;-70
2022/08/31 09:59:38;;;;;;;6.57;1.90;;;;;;;22.52;47.81;102063.22;5031134;28;20041;-71
2022/08/31 10:02:10;;;;;;;;;;;;;;;22.79;47.15;102066.00;5033965;28;20125;-71
2022/08/31 10:04:53;;;;;;;2.25;1.85;;;;;;;22.93;46.88;102070.50;5044584;28;20798;-70
2022/08/31 10:07:48;;;;;;;6.45;2.03;;;;;;;22.82;47.05;102071.22;5012402;28;20109;-71
2022/08/31 10:10:32;;;;;;;5.57;1.63;;;;;;;22.72;47.17;102057.47;5012994;28;20189;-71
2022/08/31 10:13:26;;;;;;;3.00;1.50;;;;;;;22.72;47.12;102068.22;5018057;28;20108;-70
2022/08/31 10:16:13;;;;;;;5.65;1.88;;;;;;;22.53;47.45;102073.00;5031886;28;20078;-70
2022/08/31 10:19:10;;;;;;;2.53;1.90;;;;;;;22.47;47.80;102063.50;5043104;28;20048;-70
2022/08/31 10:21:50;;;;;;;3.05;1.67;;;;;;;22.44;47.40;102059.19;5029298;28;20579;-71
2022/08/31 10:24:44;;;;;;;4.03;1.80;;;;;;;22.32;48.11;102055.41;5031642;28;20120;-70
2022/08/31 10:27:37;;;;;;;5.07;1.70;;;;;;;22.70;47.73;102061.22;5030940;28;20157;-70
2022/08/31 10:30:22;;;;;;;3.95;1.58;;;;;;;23.05;47.11;102058.09;5031128;28;20097;-70
2022/08/31 10:33:12;;;;;;;3.05;1.55;;;;;;;23.26;46.00;102053.22;5025326;28;20052;-70
2022/08/31 10:35:59;;;;;;;3.15;1.50;;;;;;;23.21;46.08;102058.00;5031207;28;20089;-71
2022/08/31 10:38:46;;;;;;;4.18;1.40;;;;;;;23.12;46.45;102054.06;5012846;28;20526;-70
2022/08/31 10:41:26;;;;;;;4.63;1.90;;;;;;;23.09;45.92;102055.16;5020047;28;20575;-70
2022/08/31 10:44:22;;;;;;;3.33;1.60;;;;;;;22.96;46.95;102062.25;5031263;28;20053;-70
2022/08/31 10:46:53;;;;;;;6.40;1.77;;;;;;;23.05;46.69;102050.91;5032447;28;20048;-71
2022/08/31 10:49:21;;;;;;;2.85;1.63;;;;;;;23.26;46.37;102059.44;5030765;28;20484;-71
2022/08/31 10:52:05;;;;;;;2.65;1.85;;;;;;;23.53;45.99;102042.47;5030553;28;20044;-70
2022/08/31 10:55:08;;;;;;;2.83;1.48;;;;;;;23.61;45.45;102041.06;5031429;28;20042;-71
2022/08/31 10:57:49;;;;;;;2.65;1.70;;;;;;;23.55;45.48;102047.72;5019940;28;20042;-70
2022/08/31 11:00:44;;;;;;;3.38;1.55;;;;;;;23.75;45.71;102043.72;5031879;28;20045;-71
2022/08/31 11:03:41;;;;;;;5.22;1.50;;;;;;;24.04;45.13;102043.59;5031138;28;20681;-70
2022/08/31 11:06:35;;;;;;;3.38;1.33;;;;;;;24.20;44.03;102043.38;5029270;28;20051;-71
2022/08/31 11:09:18;;;;;;;5.65;1.73;;;;;;;24.20;44.33;102040.69;5030564;28;20571;-70
2022/08/31 11:12:02;;;;;;;3.83;1.70;;;;;;;24.40;44.02;102046.50;5030116;28;20517;-71
2022/08/31 11:14:57;;;;;;;3.75;1.40;;;;;;;24.42;43.75;102034.66;5036303;28;20043;-71
2022/08/31 11:18:20;;;;;;;2.83;1.50;;;;;;;24.35;44.07;102034.22;5037451;28;20046;-70
2022/08/31 11:21:10;;;;;;;1.80;1.55;;;;;;;24.39;43.53;102042.94;5011558;28;20034;-70
2022/08/31 11:24:20;;;;;;;2.80;1.50;;;;;;;24.44;43.81;102046.19;5030815;28;20077;-70
2022/08/31 11:27:32;;;;;;;2.10;1.40;;;;;;;24.53;43.50;102049.19;5029858;28;20476;-70
2022/08/31 11:30:27;;;;;;;4.78;1.80;;;;;;;24.54;43.39;102037.44;5030553;28;20096;-71
2022/08/31 11:32:59;;;;;;;2.80;1.30;;;;;;;24.73;43.08;102035.19;5030222;28;20049;-70
2022/08/31 11:35:48;;;;;;;3.35;1.67;;;;;;;24.97;42.35;102026.31;5030494;28;20516;-71
2022/08/31 11:38:51;;;;;;;3.13;1.80;;;;;;;25.12;42.21;102038.66;5029974;28;20046;-70
2022/08/31 11:41:30;;;;;;;4.97;1.60;;;;;;;25.33;41.95;102031.78;5029391;28;20540;-71
2022/08/31 11:44:01;;;;;;;4.60;1.75;;;;;;;25.67;41.41;102035.53;5023301;28;20046;-71
2022/08/31 11:46:41;;;;;;;2.35;1.70;;;;;;;25.90;41.04;102022.09;5012739;28;20521;-70
2022/08/31 11:49:38;;;;;;;2.00;1.50;;;;;;;26.19;39.99;102024.41;5025207;28;20041;-71
2022/08/31 11:52:21;;;;;;;3.28;1.40;;;;;;;26.30;39.68;102021.69;5030943;28;20074;-71
2022/08/31 11:54:51;;;;;;;2.55;1.63;;;;;;;26.29;39.21;102027.25;5029776;28;20046;-70
2022/08/31 11:57:24;;;;;;;2.53;1.63;;;;;;;26.28;39.32;102017.41;5029972;28;20065;-71
2022/08/31 11:59:54;;;;;;;4.95;1.52;;;;;;;26.26;39.42;102022.94;5031007;28;20202;-70
2022/08/31 12:02:21;;;;;;;2.55;1.63;;;;;;;26.19;39.13;102014.44;5030438;28;20136;-70
2022/08/31 12:04:50;;;;;;;8.85;2.00;;;;;;;26.20;39.23;102009.91;5030295;28;20049;-71
2022/08/31 12:07:28;;;;;;;2.22;1.60;;;;;;;26.20;39.57;102015.31;5035189;28;20077;-70
2022/08/31 12:10:15;;;;;;;4.30;1.73;;;;;;;26.35;39.50;102007.84;5035697;28;20582;-70
2022/08/31 12:12:42;;;;;;;2.00;1.50;;;;;;;26.43;38.85;102005.38;5012438;28;20042;-70
2022/08/31 12:15:20;;;;;;;4.15;1.48;;;;;;;26.23;39.25;102011.53;5027621;28;20050;-71
2022/08/31 12:18:29;;;;;;;6.32;1.70;;;;;;;26.28;39.65;101999.38;5035782;28;20042;-72
2022/08/31 12:24:07;;;;;;;2.75;1.50;;;;;;;26.26;39.02;101993.22;5032370;28;20050;-71
2022/08/31 12:26:53;;;;;;;1.88;1.45;;;;;;;26.26;38.88;102004.03;5028150;28;20057;-71
2022/08/31 12:29:32;;;;;;;2.10;1.63;;;;;;;26.18;38.83;101991.13;5033028;28;20069;-71